Time;durP1;ratioP1;P1;durP2;ratioP2;P2;SDS_P1;SDS_P2;PMS_P1;PMS_P2;Temp;Humidity;BMP_temperature;BMP_pressure;BME280_temperature;BME280_humidity;BME280_pressure;Samples;Min_cycle;Max_cycle;Signal;HPM_P1;HPM_P2
2020/12/07 00:01:44;;;;;;;50.17;25.25;;;;;;;4.77;100.00;101657.16;5072696;28;20028;-64
2020/12/07 00:04:30;;;;;;;49.63;24.27;;;;;;;4.62;100.00;101656.81;5051346;28;20037;-65
2020/12/07 00:07:15;;;;;;;50.88;24.73;;;;;;;4.38;100.00;101657.19;5052587;28;20448;-64
2020/12/07 00:10:02;;;;;;;40.78;21.48;;;;;;;4.68;100.00;101659.56;5052255;28;20064;-64
2020/12/07 00:12:48;;;;;;;44.75;22.90;;;;;;;4.55;100.00;101650.63;5052504;28;20087;-66
2020/12/07 00:15:33;;;;;;;46.15;23.48;;;;;;;4.67;100.00;101652.63;5052268;28;20040;-65
2020/12/07 00:18:18;;;;;;;48.58;22.75;;;;;;;4.50;100.00;101654.84;5052120;28;20151;-64
2020/12/07 00:21:08;;;;;;;45.92;24.67;;;;;;;4.58;100.00;101661.09;5052161;28;20334;-65
2020/12/07 00:23:54;;;;;;;54.95;27.02;;;;;;;4.45;100.00;101661.66;5038165;28;20472;-64
2020/12/07 00:26:43;;;;;;;54.45;24.73;;;;;;;4.41;100.00;101667.63;5052215;28;20123;-64
2020/12/07 00:29:28;;;;;;;45.00;23.67;;;;;;;4.21;100.00;101655.94;5052075;28;20056;-65
2020/12/07 00:32:14;;;;;;;53.58;26.73;;;;;;;4.58;100.00;101652.41;5038525;28;20028;-65
2020/12/07 00:34:59;;;;;;;61.97;30.00;;;;;;;4.49;100.00;101645.31;5037960;28;20127;-65
2020/12/07 00:37:44;;;;;;;56.05;28.55;;;;;;;4.37;100.00;101657.13;5051912;28;20509;-65
2020/12/07 00:40:30;;;;;;;50.63;25.55;;;;;;;4.47;100.00;101659.09;5051835;28;20368;-64
2020/12/07 00:43:15;;;;;;;53.92;24.48;;;;;;;4.52;100.00;101666.16;5037804;28;20084;-65
2020/12/07 00:46:01;;;;;;;46.22;24.38;;;;;;;4.49;100.00;101658.28;5051912;28;20044;-65
2020/12/07 00:48:46;;;;;;;44.67;22.20;;;;;;;4.73;100.00;101652.75;5051417;28;20096;-65
2020/12/07 00:51:31;;;;;;;48.25;21.60;;;;;;;4.57;100.00;101643.78;5051965;28;20119;-64
2020/12/07 00:54:17;;;;;;;49.70;21.92;;;;;;;4.46;100.00;101637.47;5038081;28;20045;-64
2020/12/07 00:57:03;;;;;;;45.55;23.15;;;;;;;4.46;100.00;101641.78;5038142;28;20102;-65
2020/12/07 00:59:49;;;;;;;46.03;25.10;;;;;;;4.70;100.00;101635.38;5051623;28;20037;-65
2020/12/07 01:02:34;;;;;;;51.47;25.83;;;;;;;4.40;100.00;101632.16;5051838;28;20425;-65
2020/12/07 01:05:20;;;;;;;48.53;23.77;;;;;;;4.44;100.00;101630.50;5065882;28;20495;-64
2020/12/07 01:08:05;;;;;;;42.63;22.23;;;;;;;4.31;100.00;101633.66;5075982;28;20415;-65
2020/12/07 01:10:56;;;;;;;52.95;24.80;;;;;;;4.31;100.00;101621.56;5075755;28;20036;-64
2020/12/07 01:13:41;;;;;;;46.58;22.13;;;;;;;4.50;100.00;101623.72;5075942;28;20024;-65
2020/12/07 01:16:27;;;;;;;41.35;20.92;;;;;;;4.39;100.00;101626.94;5075946;28;20044;-66
2020/12/07 01:19:12;;;;;;;47.67;22.60;;;;;;;4.55;100.00;101621.22;5075581;28;20044;-65
2020/12/07 01:21:57;;;;;;;46.53;21.98;;;;;;;4.30;100.00;101617.22;5075884;28;20383;-65
2020/12/07 01:24:43;;;;;;;47.30;24.25;;;;;;;4.17;100.00;101609.13;5075629;28;20029;-66
2020/12/07 01:27:28;;;;;;;53.70;25.85;;;;;;;4.20;100.00;101612.69;5075745;28;20040;-65
2020/12/07 01:30:14;;;;;;;47.53;23.23;;;;;;;4.17;100.00;101620.38;5075219;28;20047;-65
2020/12/07 01:32:59;;;;;;;47.35;22.30;;;;;;;4.48;100.00;101608.97;5075481;28;20041;-64
2020/12/07 01:35:44;;;;;;;48.38;23.00;;;;;;;4.17;100.00;101614.31;5075349;28;20041;-64
2020/12/07 01:38:30;;;;;;;40.40;20.95;;;;;;;4.16;100.00;101608.28;5075546;28;20036;-65
2020/12/07 01:41:15;;;;;;;49.45;24.80;;;;;;;3.98;100.00;101605.25;5074903;28;20507;-65
2020/12/07 01:44:01;;;;;;;51.50;24.55;;;;;;;4.06;100.00;101614.06;5061207;28;20136;-64
2020/12/07 01:46:46;;;;;;;45.40;23.63;;;;;;;4.03;100.00;101597.59;5075151;28;20043;-63
2020/12/07 01:49:32;;;;;;;44.47;23.02;;;;;;;3.71;100.00;101602.03;5075186;28;20047;-64
2020/12/07 01:52:20;;;;;;;46.95;24.20;;;;;;;4.10;100.00;101591.69;5075373;28;20337;-64
2020/12/07 01:55:05;;;;;;;47.90;21.83;;;;;;;4.19;100.00;101586.72;5074978;28;20476;-65
2020/12/07 01:57:51;;;;;;;52.95;23.42;;;;;;;4.26;100.00;101593.78;5061188;28;20402;-65
2020/12/07 02:00:37;;;;;;;52.22;24.23;;;;;;;4.16;100.00;101591.81;5074832;28;20452;-65
2020/12/07 02:03:22;;;;;;;47.15;23.75;;;;;;;4.27;100.00;101583.41;5075618;28;20575;-64
2020/12/07 02:06:07;;;;;;;44.55;22.52;;;;;;;4.34;100.00;101574.94;5054947;28;20037;-65
2020/12/07 02:08:53;;;;;;;45.33;22.10;;;;;;;4.29;100.00;101570.50;5054899;28;20029;-65
2020/12/07 02:11:38;;;;;;;46.22;23.98;;;;;;;4.28;100.00;101585.19;5055044;28;20037;-64
2020/12/07 02:14:24;;;;;;;49.17;24.15;;;;;;;4.42;100.00;101578.56;5054820;28;20098;-65
2020/12/07 02:17:09;;;;;;;55.50;26.42;;;;;;;4.10;100.00;101568.38;5054363;28;20128;-65
2020/12/07 02:19:54;;;;;;;56.45;29.55;;;;;;;4.08;100.00;101560.56;5054174;28;20498;-65
2020/12/07 02:22:40;;;;;;;65.25;32.35;;;;;;;4.18;100.00;101564.22;5040779;28;20530;-65
2020/12/07 02:25:25;;;;;;;63.42;30.80;;;;;;;3.94;100.00;101563.69;5040443;28;20449;-66
2020/12/07 02:28:11;;;;;;;62.53;30.45;;;;;;;3.99;100.00;101562.06;5054266;28;20465;-65
2020/12/07 02:30:56;;;;;;;55.30;29.55;;;;;;;4.03;100.00;101562.13;5040056;28;20457;-65
2020/12/07 02:33:41;;;;;;;55.67;28.75;;;;;;;4.27;100.00;101562.69;5054121;28;20094;-66
2020/12/07 02:36:27;;;;;;;51.00;26.05;;;;;;;4.11;100.00;101557.16;5054293;28;20048;-64
2020/12/07 02:39:12;;;;;;;58.03;26.05;;;;;;;4.14;100.00;101560.66;5054116;28;20033;-66
2020/12/07 02:41:58;;;;;;;57.58;28.17;;;;;;;3.95;100.00;101553.31;5053893;28;20136;-64
2020/12/07 02:44:43;;;;;;;55.95;26.42;;;;;;;4.05;100.00;101568.25;5040251;28;20029;-66
2020/12/07 02:47:28;;;;;;;52.50;27.85;;;;;;;3.93;100.00;101559.31;5053782;28;20111;-65
2020/12/07 02:50:14;;;;;;;52.83;28.33;;;;;;;4.08;100.00;101555.38;5053930;28;20044;-65
2020/12/07 02:52:59;;;;;;;64.20;31.40;;;;;;;3.98;100.00;101558.59;5040040;28;20094;-65
2020/12/07 02:55:45;;;;;;;56.10;28.50;;;;;;;3.88;100.00;101567.00;5054173;28;20036;-66
2020/12/07 02:58:30;;;;;;;54.30;30.33;;;;;;;3.98;100.00;101558.59;5053878;28;20114;-64
2020/12/07 03:01:15;;;;;;;55.05;28.02;;;;;;;4.34;100.00;101564.56;5053498;28;20319;-66
2020/12/07 03:04:01;;;;;;;62.00;29.63;;;;;;;4.06;100.00;101562.22;5056240;28;20032;-65
2020/12/07 03:06:46;;;;;;;52.15;28.10;;;;;;;4.04;100.00;101556.16;5073703;28;20036;-65
2020/12/07 03:09:32;;;;;;;53.30;26.73;;;;;;;4.03;100.00;101569.06;5059710;28;20028;-65
2020/12/07 03:12:17;;;;;;;54.95;28.45;;;;;;;4.19;100.00;101568.56;5059890;28;20374;-65
2020/12/07 03:15:03;;;;;;;56.33;26.17;;;;;;;4.19;100.00;101560.78;5059386;28;20041;-65
2020/12/07 03:17:48;;;;;;;49.45;25.77;;;;;;;4.16;100.00;101571.06;5073268;28;20025;-64
2020/12/07 03:20:33;;;;;;;47.67;26.35;;;;;;;3.98;100.00;101568.94;5073310;28;20364;-65
2020/12/07 03:23:19;;;;;;;50.63;26.35;;;;;;;4.14;100.00;101575.38;5059442;28;20032;-64
2020/12/07 03:26:04;;;;;;;50.22;25.27;;;;;;;4.07;100.00;101574.34;5059163;28;20441;-64
2020/12/07 03:28:50;;;;;;;47.55;26.65;;;;;;;3.94;100.00;101569.72;5072635;28;20028;-65
2020/12/07 03:31:38;;;;;;;50.47;25.85;;;;;;;3.81;100.00;101572.88;5073091;28;20028;-64
2020/12/07 03:34:23;;;;;;;51.03;26.05;;;;;;;3.97;100.00;101569.81;5073029;28;20056;-64
2020/12/07 03:37:08;;;;;;;47.72;27.83;;;;;;;3.83;100.00;101570.31;5059362;28;20111;-65
2020/12/07 03:39:54;;;;;;;46.75;25.50;;;;;;;3.78;100.00;101583.16;5073391;28;20392;-65
2020/12/07 03:42:39;;;;;;;45.38;24.75;;;;;;;3.77;100.00;101580.53;5072663;28;20053;-65
2020/12/07 03:45:25;;;;;;;47.50;25.63;;;;;;;3.95;100.00;101579.25;5072841;28;20036;-65
2020/12/07 03:48:11;;;;;;;49.42;25.88;;;;;;;4.03;100.00;101572.50;5072717;28;20040;-65
2020/12/07 03:50:56;;;;;;;43.78;25.25;;;;;;;4.04;100.00;101568.22;5058996;28;20130;-64
2020/12/07 03:53:42;;;;;;;47.65;27.13;;;;;;;4.04;100.00;101570.81;5072743;28;20028;-65
2020/12/07 03:56:28;;;;;;;46.20;24.25;;;;;;;3.77;100.00;101576.25;5072856;28;20108;-65
2020/12/07 03:59:13;;;;;;;40.95;22.65;;;;;;;3.91;100.00;101582.59;5044878;28;20040;-64
2020/12/07 04:01:58;;;;;;;46.05;25.05;;;;;;;4.01;100.00;101581.09;5072539;28;20044;-65
2020/12/07 04:04:54;;;;;;;43.70;23.90;;;;;;;3.97;100.00;101576.69;5052477;28;20025;-65
2020/12/07 04:07:40;;;;;;;35.45;22.48;;;;;;;4.07;100.00;101565.69;5038717;28;20037;-65
2020/12/07 04:10:25;;;;;;;40.90;22.17;;;;;;;3.88;100.00;101560.94;5038512;28;20132;-64
2020/12/07 04:13:11;;;;;;;38.83;22.42;;;;;;;3.63;100.00;101576.75;5052556;28;20047;-65
2020/12/07 04:15:57;;;;;;;45.92;25.13;;;;;;;3.84;100.00;101570.38;5052527;28;20060;-64
2020/12/07 04:18:42;;;;;;;48.35;27.02;;;;;;;3.81;100.00;101570.28;5052208;28;20040;-65
2020/12/07 04:21:28;;;;;;;40.45;24.77;;;;;;;3.98;100.00;101571.53;5038478;28;20491;-64
2020/12/07 04:24:13;;;;;;;51.78;25.52;;;;;;;4.22;100.00;101574.69;5052380;28;20044;-64
2020/12/07 04:26:58;;;;;;;51.60;28.55;;;;;;;4.04;100.00;101573.41;5038305;28;20071;-64
2020/12/07 04:29:44;;;;;;;44.72;25.98;;;;;;;4.26;100.00;101580.81;5038206;28;20048;-65
2020/12/07 04:32:29;;;;;;;54.47;28.73;;;;;;;3.76;100.00;101582.28;5051961;28;20082;-65
2020/12/07 04:35:15;;;;;;;54.80;27.42;;;;;;;3.88;100.00;101574.78;5038049;28;20029;-65
2020/12/07 04:38:01;;;;;;;41.88;24.80;;;;;;;4.05;100.00;101583.81;5052092;28;20033;-65
2020/12/07 04:40:47;;;;;;;46.90;23.55;;;;;;;4.02;100.00;101575.97;5037518;28;20028;-65
2020/12/07 04:43:33;;;;;;;53.50;27.52;;;;;;;3.94;100.00;101568.88;5038079;28;20045;-65
2020/12/07 04:46:19;;;;;;;46.17;24.00;;;;;;;3.72;100.00;101564.91;5052065;28;20114;-64
2020/12/07 04:49:04;;;;;;;42.03;22.25;;;;;;;3.81;100.00;101565.09;5051389;28;20040;-65
2020/12/07 04:51:51;;;;;;;43.63;23.85;;;;;;;3.74;100.00;101570.13;5052393;28;20293;-65
2020/12/07 04:54:38;;;;;;;44.13;26.83;;;;;;;3.70;100.00;101566.56;5038080;28;20024;-64
2020/12/07 04:57:24;;;;;;;46.47;27.88;;;;;;;3.90;100.00;101567.03;5052453;28;20041;-64
2020/12/07 05:00:10;;;;;;;50.17;26.25;;;;;;;4.17;100.00;101568.53;5051728;28;20098;-64
2020/12/07 05:02:56;;;;;;;44.53;26.52;;;;;;;4.17;100.00;101583.19;5051526;28;20045;-64
2020/12/07 05:05:42;;;;;;;42.20;22.60;;;;;;;3.85;100.00;101569.53;5051639;28;20032;-64
2020/12/07 05:08:27;;;;;;;43.67;25.92;;;;;;;3.75;100.00;101567.56;5037836;28;20467;-64
2020/12/07 05:11:13;;;;;;;40.78;23.17;;;;;;;3.60;100.00;101580.16;5037952;28;20132;-64
2020/12/07 05:14:12;;;;;;;40.45;22.17;;;;;;;3.81;100.00;101575.47;5051768;28;20067;-64
2020/12/07 05:16:58;;;;;;;37.15;21.65;;;;;;;3.55;100.00;101570.53;5051803;28;20048;-65
2020/12/07 05:19:44;;;;;;;34.90;21.92;;;;;;;3.71;100.00;101578.72;5051359;28;20037;-64
2020/12/07 05:22:29;;;;;;;38.20;21.10;;;;;;;3.85;100.00;101577.28;5051749;28;20037;-64
2020/12/07 05:25:16;;;;;;;37.05;21.13;;;;;;;3.82;100.00;101577.22;5051839;28;20442;-64
2020/12/07 05:28:05;;;;;;;37.05;21.02;;;;;;;3.93;100.00;101580.06;5051597;28;20041;-64
2020/12/07 05:30:51;;;;;;;42.10;22.30;;;;;;;3.76;100.00;101574.50;5051260;28;20514;-64
2020/12/07 05:33:37;;;;;;;36.83;21.40;;;;;;;3.71;100.00;101576.13;5051588;28;20037;-65
2020/12/07 05:36:22;;;;;;;41.85;22.20;;;;;;;3.80;100.00;101584.09;5051775;28;20029;-64
2020/12/07 05:39:08;;;;;;;39.47;20.98;;;;;;;3.98;100.00;101587.09;5051384;28;20037;-65
2020/12/07 05:41:55;;;;;;;36.53;19.75;;;;;;;3.79;100.00;101590.13;5037600;28;20091;-64
2020/12/07 05:44:42;;;;;;;38.47;19.58;;;;;;;3.74;100.00;101598.63;5051101;28;20037;-64
2020/12/07 05:47:31;;;;;;;36.22;19.15;;;;;;;3.59;100.00;101600.84;5051597;28;20029;-65
2020/12/07 05:50:17;;;;;;;36.38;19.90;;;;;;;3.91;100.00;101592.97;5051436;28;20037;-64
2020/12/07 05:53:04;;;;;;;37.13;19.42;;;;;;;3.69;100.00;101585.56;5053663;28;20484;-63
2020/12/07 05:55:50;;;;;;;32.65;19.65;;;;;;;3.76;100.00;101584.88;5041487;28;20045;-65
2020/12/07 05:58:48;;;;;;;34.13;19.25;;;;;;;3.64;100.00;101586.28;5055249;28;20039;-65
2020/12/07 06:01:37;;;;;;;41.85;19.70;;;;;;;3.57;100.00;101585.25;5055117;28;20067;-65
2020/12/07 06:04:22;;;;;;;39.47;22.10;;;;;;;3.48;100.00;101581.56;5060902;28;20345;-65
2020/12/07 06:07:10;;;;;;;35.90;19.95;;;;;;;3.42;100.00;101574.50;5075031;28;20054;-65
2020/12/07 06:09:58;;;;;;;33.00;18.98;;;;;;;3.38;100.00;101577.00;5074119;28;20495;-65
2020/12/07 06:12:48;;;;;;;35.70;19.45;;;;;;;3.54;100.00;101584.31;5074742;28;20090;-64
2020/12/07 06:15:34;;;;;;;37.30;18.88;;;;;;;3.53;100.00;101596.38;5060641;28;20085;-65
2020/12/07 06:18:28;;;;;;;34.90;20.05;;;;;;;3.65;100.00;101598.38;5074286;28;20036;-65
2020/12/07 06:21:18;;;;;;;39.15;20.25;;;;;;;3.25;100.00;101588.75;5074628;28;20051;-65
2020/12/07 06:24:04;;;;;;;33.67;20.00;;;;;;;3.74;100.00;101609.84;5074298;28;20029;-64
2020/12/07 06:27:00;;;;;;;36.67;19.95;;;;;;;3.67;100.00;101605.38;5074455;28;20047;-65
2020/12/07 06:30:17;;;;;;;30.90;18.33;;;;;;;3.88;100.00;101618.84;5073938;28;20085;-64
2020/12/07 06:33:09;;;;;;;38.90;18.42;;;;;;;3.62;100.00;101612.16;5072733;28;20054;-65
2020/12/07 06:35:56;;;;;;;32.08;17.02;;;;;;;3.48;100.00;101608.34;5074077;28;20066;-63
2020/12/07 06:38:42;;;;;;;36.08;18.70;;;;;;;3.46;100.00;101609.16;5074054;28;20035;-66
2020/12/07 06:41:39;;;;;;;32.78;18.25;;;;;;;3.46;100.00;101614.34;5074082;28;20049;-65
2020/12/07 06:44:26;;;;;;;32.10;17.60;;;;;;;3.24;100.00;101620.66;5073826;28;20028;-65
2020/12/07 06:47:24;;;;;;;34.38;19.45;;;;;;;3.58;100.00;101620.69;5073613;28;20468;-65
2020/12/07 06:50:13;;;;;;;35.88;19.88;;;;;;;3.23;100.00;101608.56;5073363;28;20460;-65
2020/12/07 06:52:59;;;;;;;35.40;19.20;;;;;;;3.39;100.00;101607.25;5073836;28;20047;-66
2020/12/07 06:55:44;;;;;;;33.50;19.05;;;;;;;3.66;100.00;101611.38;5073633;28;20028;-65
2020/12/07 06:58:38;;;;;;;35.55;19.40;;;;;;;3.58;100.00;101606.88;5073750;28;20070;-64
2020/12/07 07:01:24;;;;;;;36.80;18.27;;;;;;;3.21;100.00;101624.88;5059679;28;20036;-65
2020/12/07 07:04:09;;;;;;;37.42;19.25;;;;;;;3.10;100.00;101611.66;5068641;28;20032;-65
2020/12/07 07:06:58;;;;;;;45.33;21.20;;;;;;;2.99;100.00;101620.88;5053772;28;20043;-65
2020/12/07 07:09:43;;;;;;;47.30;24.30;;;;;;;3.24;100.00;101612.91;5053407;28;20155;-64
2020/12/07 07:12:29;;;;;;;38.75;20.77;;;;;;;3.25;100.00;101618.94;5053765;28;20056;-64
2020/12/07 07:15:14;;;;;;;44.30;22.75;;;;;;;3.20;100.00;101618.84;5039387;28;20083;-65
2020/12/07 07:18:00;;;;;;;38.60;20.85;;;;;;;3.29;100.00;101623.38;5053312;28;20124;-64
2020/12/07 07:20:46;;;;;;;39.20;22.60;;;;;;;3.19;100.00;101608.44;5053330;28;20033;-66
2020/12/07 07:23:31;;;;;;;46.30;24.35;;;;;;;3.28;100.00;101591.44;5053416;28;20043;-65
2020/12/07 07:26:33;;;;;;;48.67;24.45;;;;;;;3.13;100.00;101595.34;5053296;28;20036;-65
2020/12/07 07:29:19;;;;;;;45.17;24.35;;;;;;;2.98;100.00;101588.03;5052712;28;20162;-65
2020/12/07 07:32:04;;;;;;;48.13;26.63;;;;;;;3.01;100.00;101582.09;5053003;28;20041;-64
2020/12/07 07:34:50;;;;;;;51.97;28.27;;;;;;;3.29;100.00;101572.47;5052999;28;20036;-64
2020/12/07 07:37:37;;;;;;;47.05;25.65;;;;;;;3.18;100.00;101563.53;5053038;28;20033;-64
2020/12/07 07:40:24;;;;;;;42.50;23.17;;;;;;;3.18;100.00;101571.31;5052557;28;20064;-64
2020/12/07 07:43:11;;;;;;;46.92;23.55;;;;;;;3.16;100.00;101567.81;5052742;28;20057;-64
2020/12/07 07:46:01;;;;;;;47.85;25.88;;;;;;;3.19;100.00;101565.31;5053039;28;20024;-65
2020/12/07 08:16:56;;;;;;;45.38;23.23;;;;;;;3.36;100.00;101552.75;5071330;28;20037;-66
2020/12/07 08:19:43;;;;;;;47.40;23.75;;;;;;;3.45;100.00;101555.56;5057944;28;20507;-64
2020/12/07 08:22:28;;;;;;;43.17;22.65;;;;;;;3.43;100.00;101560.75;5072143;28;20441;-64
2020/12/07 08:25:17;;;;;;;42.22;23.85;;;;;;;3.19;100.00;101547.19;5072153;28;20036;-64
2020/12/07 08:28:15;;;;;;;43.55;23.52;;;;;;;3.59;100.00;101555.09;5072228;28;20032;-65
2020/12/07 08:31:08;;;;;;;43.90;22.52;;;;;;;3.28;100.00;101557.78;5072100;28;20356;-64
2020/12/07 08:34:13;;;;;;;42.83;22.48;;;;;;;3.37;100.00;101554.50;5072247;28;20043;-64
2020/12/07 08:36:59;;;;;;;46.80;23.77;;;;;;;3.36;100.00;101556.25;5072500;28;20384;-65
2020/12/07 08:39:44;;;;;;;49.60;25.90;;;;;;;3.55;100.00;101563.63;5071629;28;20448;-64
2020/12/07 08:42:32;;;;;;;51.00;26.48;;;;;;;3.38;100.00;101556.28;5071873;28;20528;-65
2020/12/07 08:45:18;;;;;;;57.45;29.42;;;;;;;3.55;100.00;101550.69;5071850;28;20377;-64
2020/12/07 08:48:04;;;;;;;56.70;28.92;;;;;;;3.45;100.00;101543.50;5071944;28;20059;-64
2020/12/07 08:50:49;;;;;;;53.17;29.67;;;;;;;3.29;100.00;101543.09;5057837;28;20043;-65
2020/12/07 08:53:36;;;;;;;52.70;28.50;;;;;;;3.52;100.00;101545.41;5071912;28;20089;-65
2020/12/07 08:56:22;;;;;;;52.17;26.95;;;;;;;3.77;100.00;101531.28;5057840;28;20029;-64
2020/12/07 08:59:07;;;;;;;46.90;26.40;;;;;;;3.81;100.00;101528.81;5071762;28;20032;-64
2020/12/07 09:01:52;;;;;;;47.45;27.48;;;;;;;3.84;100.00;101534.09;5057450;28;20043;-64
2020/12/07 09:04:38;;;;;;;56.58;27.50;;;;;;;3.86;100.00;101515.97;5049631;28;20040;-65
2020/12/07 09:07:23;;;;;;;58.22;30.40;;;;;;;3.57;100.00;101509.25;5037853;28;20052;-65
2020/12/07 09:10:09;;;;;;;44.75;27.63;;;;;;;3.44;100.00;101509.78;5051552;28;20029;-65
2020/12/07 09:12:55;;;;;;;46.88;25.85;;;;;;;3.63;100.00;101512.88;5051889;28;20248;-65
2020/12/07 09:15:40;;;;;;;56.03;30.40;;;;;;;3.61;100.00;101509.34;5051530;28;20092;-66
2020/12/07 09:18:27;;;;;;;51.95;28.80;;;;;;;3.62;100.00;101511.09;5051834;28;20036;-65
2020/12/07 09:21:12;;;;;;;43.55;25.45;;;;;;;3.39;100.00;101495.88;5051786;28;20105;-66
2020/12/07 09:23:58;;;;;;;45.88;24.80;;;;;;;3.64;100.00;101490.41;5051498;28;20105;-65
2020/12/07 09:26:43;;;;;;;43.22;24.10;;;;;;;3.35;100.00;101482.00;5051811;28;20040;-64
2020/12/07 09:29:28;;;;;;;46.38;24.85;;;;;;;3.60;100.00;101479.13;5055084;28;20083;-65
2020/12/07 09:32:14;;;;;;;39.70;24.02;;;;;;;3.47;100.00;101477.09;5055428;28;20037;-65
2020/12/07 09:35:00;;;;;;;45.70;26.05;;;;;;;3.63;100.00;101471.41;5041472;28;20032;-66
2020/12/07 09:38:36;;;;;;;54.78;28.92;;;;;;;3.56;100.00;101476.41;5055585;28;20033;-69
2020/12/07 09:41:22;;;;;;;52.75;27.02;;;;;;;3.72;100.00;101469.03;5055695;28;20463;-66
2020/12/07 09:44:07;;;;;;;54.20;28.65;;;;;;;3.74;100.00;101464.72;5054531;28;20032;-66
2020/12/07 09:46:53;;;;;;;45.78;27.52;;;;;;;3.81;100.00;101466.63;5041514;28;20416;-65
2020/12/07 09:49:38;;;;;;;43.72;26.13;;;;;;;4.18;100.00;101465.69;5055056;28;20092;-68
2020/12/07 09:52:24;;;;;;;41.63;23.67;;;;;;;3.88;100.00;101460.72;5055316;28;20111;-66
2020/12/07 09:55:09;;;;;;;48.45;26.17;;;;;;;3.50;100.00;101458.16;5055104;28;20339;-65
2020/12/07 09:57:54;;;;;;;51.58;26.05;;;;;;;3.27;100.00;101449.84;5055224;28;20036;-65
2020/12/07 10:00:40;;;;;;;46.67;25.70;;;;;;;3.46;100.00;101454.59;5054729;28;20051;-65
2020/12/07 10:03:26;;;;;;;46.33;25.40;;;;;;;3.52;100.00;101440.91;5055165;28;20124;-66
2020/12/07 10:06:11;;;;;;;45.70;23.73;;;;;;;3.44;100.00;101432.97;5040829;28;20373;-65
2020/12/07 10:08:57;;;;;;;46.03;25.33;;;;;;;3.56;100.00;101433.25;5054143;28;20520;-66
2020/12/07 10:11:42;;;;;;;50.75;27.10;;;;;;;3.22;100.00;101420.38;5054544;28;20072;-66
2020/12/07 10:14:28;;;;;;;49.05;25.80;;;;;;;3.12;100.00;101421.00;5054518;28;20040;-64
2020/12/07 10:17:13;;;;;;;42.35;23.30;;;;;;;3.11;100.00;101418.38;5040999;28;20067;-65
2020/12/07 10:19:59;;;;;;;41.75;24.00;;;;;;;3.26;100.00;101417.00;5054673;28;20139;-66
2020/12/07 10:22:44;;;;;;;43.58;24.17;;;;;;;3.00;100.00;101412.97;5054649;28;20061;-66
2020/12/07 10:25:29;;;;;;;42.17;24.40;;;;;;;3.26;100.00;101411.84;5040580;28;20037;-66
2020/12/07 10:28:15;;;;;;;47.72;28.10;;;;;;;3.28;100.00;101398.94;5040451;28;20029;-67
2020/12/07 10:31:00;;;;;;;57.55;29.27;;;;;;;3.45;100.00;101401.06;5053933;28;20040;-65
2020/12/07 10:33:47;;;;;;;43.95;23.80;;;;;;;3.48;100.00;101402.84;5040361;28;20037;-65
2020/12/07 10:36:32;;;;;;;37.72;22.88;;;;;;;3.66;100.00;101396.31;5068312;28;20453;-65
2020/12/07 10:39:17;;;;;;;33.25;21.27;;;;;;;3.53;100.00;101390.84;5053247;28;20115;-67
2020/12/07 10:42:03;;;;;;;40.75;22.67;;;;;;;3.47;100.00;101395.91;5053923;28;20404;-65
2020/12/07 10:44:48;;;;;;;36.95;23.17;;;;;;;3.83;100.00;101371.66;5053900;28;20048;-66
2020/12/07 10:47:34;;;;;;;42.78;23.67;;;;;;;3.39;100.00;101371.56;5053828;28;20033;-67
2020/12/07 10:50:20;;;;;;;32.42;19.52;;;;;;;3.65;100.00;101349.66;5053900;28;20033;-66
2020/12/07 10:53:05;;;;;;;37.72;21.40;;;;;;;3.54;100.00;101351.19;5053967;28;20075;-65
2020/12/07 10:55:52;;;;;;;34.92;21.27;;;;;;;3.83;100.00;101339.66;5039869;28;20489;-66
2020/12/07 10:58:38;;;;;;;38.42;22.27;;;;;;;3.60;100.00;101344.41;5054069;28;20041;-66
2020/12/07 11:01:24;;;;;;;53.83;30.83;;;;;;;3.67;100.00;101322.97;5053686;28;20430;-66
2020/12/07 11:04:09;;;;;;;31.55;20.27;;;;;;;3.60;100.00;101312.44;5057584;28;20032;-65
2020/12/07 11:06:57;;;;;;;37.55;21.02;;;;;;;3.54;100.00;101322.69;5073773;28;20039;-66
2020/12/07 11:09:42;;;;;;;36.35;21.40;;;;;;;3.56;100.00;101319.28;5073336;28;20510;-65
2020/12/07 11:12:28;;;;;;;32.47;19.15;;;;;;;3.70;100.00;101301.41;5073808;28;20032;-66
2020/12/07 11:15:13;;;;;;;34.08;20.55;;;;;;;3.62;100.00;101306.44;5073160;28;20596;-65
2020/12/07 11:17:59;;;;;;;34.35;19.58;;;;;;;3.88;100.00;101325.97;5073290;28;20364;-65
2020/12/07 11:20:44;;;;;;;35.38;19.98;;;;;;;3.75;100.00;101325.69;5073410;28;20359;-65
2020/12/07 11:23:30;;;;;;;32.65;19.88;;;;;;;3.77;100.00;101326.56;5073330;28;20087;-65
2020/12/07 11:26:17;;;;;;;45.28;22.52;;;;;;;3.93;100.00;101332.09;5073447;28;20071;-65
2020/12/07 11:29:02;;;;;;;40.30;22.25;;;;;;;3.66;100.00;101325.53;5072622;28;20338;-65
2020/12/07 11:31:49;;;;;;;34.85;20.95;;;;;;;3.77;100.00;101331.75;5072947;28;20093;-66
2020/12/07 11:34:35;;;;;;;44.10;22.05;;;;;;;3.94;100.00;101343.34;5073271;28;20313;-67
2020/12/07 11:37:20;;;;;;;39.33;22.30;;;;;;;4.00;100.00;101330.50;5073463;28;20459;-65
2020/12/07 11:40:31;;;;;;;42.28;23.05;;;;;;;3.52;100.00;101325.25;5059294;28;20047;-64
2020/12/07 11:43:22;;;;;;;37.45;22.60;;;;;;;3.87;100.00;101331.09;5058838;28;20515;-64
2020/12/07 11:46:07;;;;;;;44.60;23.70;;;;;;;3.62;100.00;101329.75;5059184;28;20028;-64
2020/12/07 11:48:52;;;;;;;46.15;25.10;;;;;;;3.90;100.00;101320.81;5072546;28;20039;-64
2020/12/07 11:51:38;;;;;;;43.15;25.15;;;;;;;3.84;100.00;101324.16;5058999;28;20028;-65
2020/12/07 11:54:24;;;;;;;46.30;24.67;;;;;;;3.93;100.00;101332.09;5072604;28;20039;-65
2020/12/07 11:57:09;;;;;;;49.45;27.63;;;;;;;4.11;100.00;101321.19;5059006;28;20040;-66
2020/12/07 11:59:55;;;;;;;44.67;25.60;;;;;;;3.88;100.00;101322.47;5058660;28;20094;-65
2020/12/07 12:02:40;;;;;;;44.13;25.67;;;;;;;4.27;100.00;101318.03;5072446;28;20040;-65
2020/12/07 12:05:25;;;;;;;55.42;27.80;;;;;;;3.87;100.00;101300.00;5057671;28;20465;-70
2020/12/07 12:08:11;;;;;;;48.00;26.48;;;;;;;3.76;100.00;101299.81;5038790;28;20496;-65
2020/12/07 12:10:56;;;;;;;49.55;27.98;;;;;;;4.00;100.00;101295.09;5052347;28;20029;-65
2020/12/07 12:13:41;;;;;;;55.25;28.13;;;;;;;3.99;100.00;101289.88;5052293;28;20037;-65
2020/12/07 12:16:27;;;;;;;49.05;27.20;;;;;;;3.80;100.00;101292.97;5052433;28;20045;-66
2020/12/07 12:19:13;;;;;;;45.97;27.58;;;;;;;3.76;100.00;101280.78;5052183;28;20039;-66
2020/12/07 12:21:58;;;;;;;48.17;26.27;;;;;;;3.53;100.00;101287.22;5052366;28;20041;-65
2020/12/07 12:24:44;;;;;;;52.80;31.05;;;;;;;4.06;100.00;101296.91;5052297;28;20090;-65
2020/12/07 12:27:29;;;;;;;59.25;31.65;;;;;;;3.88;100.00;101294.84;5052192;28;20100;-65
2020/12/07 12:30:14;;;;;;;46.50;25.75;;;;;;;3.56;100.00;101318.38;5052079;28;20039;-66
2020/12/07 12:33:00;;;;;;;46.20;27.02;;;;;;;3.45;100.00;101322.47;5038558;28;20040;-64
2020/12/07 12:35:46;;;;;;;65.22;32.63;;;;;;;3.41;100.00;101326.72;5052178;28;20107;-65
2020/12/07 12:38:32;;;;;;;52.58;29.52;;;;;;;3.68;100.00;101337.66;5052189;28;20037;-65
2020/12/07 12:41:18;;;;;;;49.40;25.73;;;;;;;3.44;100.00;101336.25;5051770;28;20472;-66
2020/12/07 12:44:07;;;;;;;47.95;27.40;;;;;;;3.40;100.00;101339.63;5051883;28;20457;-66
2020/12/07 12:46:53;;;;;;;47.53;25.08;;;;;;;3.45;100.00;101323.34;5052039;28;20098;-65
2020/12/07 12:49:38;;;;;;;53.05;28.13;;;;;;;3.20;100.00;101320.22;5051401;28;20036;-64
2020/12/07 12:52:24;;;;;;;55.33;29.83;;;;;;;3.22;100.00;101316.81;5051987;28;20044;-65
2020/12/07 12:55:10;;;;;;;53.83;29.10;;;;;;;3.57;100.00;101304.59;5051714;28;20063;-65
2020/12/07 12:57:56;;;;;;;45.83;25.42;;;;;;;3.41;100.00;101306.00;5051572;28;20052;-65
2020/12/07 13:00:41;;;;;;;60.28;28.48;;;;;;;3.36;100.00;101323.16;5051269;28;20029;-64
2020/12/07 13:03:27;;;;;;;49.40;27.30;;;;;;;3.72;100.00;101308.38;5037432;28;20411;-64
2020/12/07 13:06:12;;;;;;;52.63;27.42;;;;;;;3.52;100.00;101309.69;5038097;28;20102;-65